Time;durP1;ratioP1;P1;durP2;ratioP2;P2;SDS_P1;SDS_P2;PMS_P1;PMS_P2;Temp;Humidity;BMP_temperature;BMP_pressure;BME280_temperature;BME280_humidity;BME280_pressure;Samples;Min_cycle;Max_cycle;Signal;HPM_P1;HPM_P2
2022/02/23 07:30:40;;;;;;;;;4.00;4.00;;;;;16.93;59.38;102476.53;4997294;28;45782;-76
2022/02/23 07:33:05;;;;;;;;;3.00;3.00;;;;;17.07;59.05;102478.53;4996393;28;45477;-75
2022/02/23 07:35:30;;;;;;;;;2.75;2.75;;;;;17.33;58.91;102478.06;4971504;28;45465;-74
2022/02/23 07:38:04;;;;;;;;;2.00;2.00;;;;;17.64;58.64;102492.44;4975505;28;45495;-74
2022/02/23 07:40:29;;;;;;;;;2.00;2.00;;;;;17.99;58.21;102494.91;4973129;28;46326;-74
2022/02/23 07:42:55;;;;;;;;;3.00;3.00;;;;;18.38;57.92;102495.41;4974544;28;45694;-74
2022/02/23 07:45:21;;;;;;;;;3.00;3.00;;;;;18.78;57.37;102488.56;4989073;28;48574;-74
2022/02/23 07:47:47;;;;;;;;;3.00;2.25;;;;;19.13;56.63;102490.91;4974801;28;45575;-75
2022/02/23 07:50:15;;;;;;;;;3.00;2.00;;;;;19.51;55.76;102494.81;4974756;28;45811;-76
2022/02/23 07:52:42;;;;;;;;;2.33;2.33;;;;;19.84;55.13;102490.91;4991332;28;46298;-76
2022/02/23 07:55:09;;;;;;;;;3.00;3.00;;;;;20.18;55.05;102490.50;4983131;28;45512;-76
2022/02/23 07:57:35;;;;;;;;;3.00;2.00;;;;;20.50;54.36;102482.03;4974654;28;45512;-76
2022/02/23 08:00:00;;;;;;;;;1.67;1.67;;;;;20.80;53.94;102488.97;4973963;28;46305;-77
2022/02/23 08:02:31;;;;;;;;;3.33;2.67;;;;;21.08;53.34;102494.25;4972657;28;46553;-77
2022/02/23 08:04:56;;;;;;;;;5.00;5.00;;;;;21.31;52.18;102492.63;4970712;28;45473;-77
2022/02/23 08:07:21;;;;;;;;;4.67;4.67;;;;;21.53;51.47;102484.75;4984176;28;45452;-76
2022/02/23 08:09:47;;;;;;;;;6.00;5.00;;;;;21.68;51.04;102486.34;4980139;28;46197;-76
2022/02/23 08:12:13;;;;;;;;;6.33;5.00;;;;;21.83;50.53;102484.38;4983872;28;45484;-79
2022/02/23 08:14:39;;;;;;;;;5.67;3.00;;;;;21.94;49.94;102494.38;4984527;28;45819;-78
2022/02/23 08:19:49;;;;;;;;;4.67;3.33;;;;;22.12;49.62;102488.56;4982790;28;45463;-79
2022/02/23 08:22:15;;;;;;;;;7.00;6.33;;;;;22.20;49.61;102496.94;4985024;28;45495;-79
2022/02/23 08:24:43;;;;;;;;;9.00;5.67;;;;;22.27;49.02;102491.06;4984360;28;45525;-78
2022/02/23 08:27:11;;;;;;;;;17.67;11.33;;;;;22.27;48.60;102481.09;4976572;28;45840;-86
2022/02/23 08:29:37;;;;;;;;;14.33;10.00;;;;;22.28;48.57;102490.09;4995999;28;46389;-78
2022/02/23 08:32:05;;;;;;;;;12.67;12.67;;;;;22.31;48.61;102493.41;5006522;28;45494;-78
2022/02/23 08:34:30;;;;;;;;;17.67;12.33;;;;;22.35;48.03;102494.03;5005229;28;45499;-78
2022/02/23 08:36:56;;;;;;;;;10.00;8.00;;;;;22.38;47.78;102500.09;4997256;28;45474;-79
2022/02/23 08:39:21;;;;;;;;;14.33;12.00;;;;;22.41;48.16;102500.81;4998355;28;45863;-80
2022/02/23 08:41:47;;;;;;;;;16.00;10.67;;;;;22.47;47.51;102494.94;4995084;28;45585;-79
2022/02/23 08:44:13;;;;;;;;;9.67;8.00;;;;;22.49;47.33;102499.25;4991632;28;45472;-79
2022/02/23 08:46:42;;;;;;;;;10.33;8.00;;;;;22.55;47.54;102497.06;4990968;28;45542;-76
2022/02/23 08:49:09;;;;;;;;;8.00;7.00;;;;;22.65;47.12;102495.41;4957781;28;45989;-80
2022/02/23 08:51:36;;;;;;;;;9.67;8.67;;;;;22.78;47.40;102503.41;4992290;28;45735;-77
2022/02/23 08:54:02;;;;;;;;;14.33;9.00;;;;;22.89;46.89;102499.84;4990605;28;45612;-75
2022/02/23 08:56:28;;;;;;;;;11.67;11.67;;;;;22.97;47.33;102499.25;4993650;28;45515;-75
2022/02/23 08:58:53;;;;;;;;;9.00;8.67;;;;;23.09;47.10;102500.09;4997518;28;46562;-75
2022/02/23 09:01:18;;;;;;;;;10.00;8.33;;;;;23.21;47.09;102498.25;4994161;28;45488;-76
2022/02/23 09:03:44;;;;;;;;;8.67;7.00;;;;;23.32;46.94;102497.38;4984536;28;46180;-76
2022/02/23 09:06:10;;;;;;;;;9.33;7.67;;;;;23.45;46.83;102494.56;4989202;28;45592;-75
2022/02/23 09:08:35;;;;;;;;;9.67;8.00;;;;;23.52;46.37;102488.53;4989038;28;46949;-78
2022/02/23 09:11:01;;;;;;;;;11.00;8.33;;;;;23.62;46.54;102496.75;4988878;28;45519;-75
2022/02/23 09:13:26;;;;;;;;;12.67;9.33;;;;;23.69;46.67;102495.25;4988981;28;45547;-78
2022/02/23 09:15:51;;;;;;;;;10.33;8.67;;;;;23.75;46.76;102493.03;4965245;28;45517;-78
2022/02/23 09:18:17;;;;;;;;;8.67;6.67;;;;;23.77;46.44;102494.63;4984950;28;45455;-76
2022/02/23 09:20:42;;;;;;;;;10.00;9.00;;;;;23.81;46.39;102479.81;4990260;28;45564;-76
2022/02/23 09:23:08;;;;;;;;;9.33;6.33;;;;;23.87;46.43;102481.13;4994522;28;45780;-76
2022/02/23 09:25:33;;;;;;;;;10.67;8.67;;;;;23.91;46.33;102481.75;4989606;28;45371;-76
2022/02/23 09:27:59;;;;;;;;;10.00;7.67;;;;;23.91;46.53;102481.75;4990069;28;45557;-76
2022/02/23 09:30:24;;;;;;;;;7.00;7.00;;;;;23.96;46.37;102479.50;4991521;28;45693;-78
2022/02/23 09:32:50;;;;;;;;;8.67;7.00;;;;;24.02;46.26;102484.41;4981142;28;46713;-77
2022/02/23 09:35:19;;;;;;;;;8.00;6.33;;;;;24.02;46.18;102478.13;4982837;28;45880;-78
2022/02/23 09:37:45;;;;;;;;;8.00;8.00;;;;;24.00;46.32;102469.25;5008396;28;47090;-77
2022/02/23 09:40:14;;;;;;;;;6.00;6.00;;;;;24.03;46.34;102477.16;4987514;28;45515;-77
2022/02/23 09:42:40;;;;;;;;;8.33;6.00;;;;;24.08;46.46;102466.78;4995854;28;45569;-80
2022/02/23 09:45:06;;;;;;;;;6.00;4.67;;;;;24.11;46.17;102466.53;4987005;28;45489;-77
2022/02/23 09:47:32;;;;;;;;;7.00;5.00;;;;;24.15;46.62;102459.00;4991356;28;45547;-77
2022/02/23 09:50:03;;;;;;;;;7.00;5.67;;;;;24.21;46.37;102464.75;4994312;28;45857;-76
2022/02/23 09:52:28;;;;;;;;;11.00;6.67;;;;;24.26;46.23;102461.66;4999222;28;45458;-77
2022/02/23 09:54:58;;;;;;;;;7.00;7.00;;;;;24.29;46.45;102452.38;4990051;28;45584;-73
2022/02/23 09:57:25;;;;;;;;;4.33;4.33;;;;;24.31;46.13;102453.09;4996806;28;46273;-76
2022/02/23 09:59:50;;;;;;;;;7.33;6.00;;;;;24.37;46.04;102451.72;4993080;28;45433;-73
2022/02/23 10:02:15;;;;;;;;;6.33;6.00;;;;;24.42;46.05;102454.88;4997904;28;51026;-73
2022/02/23 10:04:41;;;;;;;;;6.00;6.00;;;;;24.47;46.03;102449.91;5003962;28;45520;-74
2022/02/23 10:07:07;;;;;;;;;7.67;5.67;;;;;24.53;46.46;102443.97;4983546;28;46306;-74
2022/02/23 10:09:44;;;;;;;;;7.00;5.67;;;;;24.59;46.32;102450.69;4998796;28;45401;-75
2022/02/23 10:12:20;;;;;;;;;6.33;5.67;;;;;24.62;45.96;102453.16;4990775;28;45745;-76
2022/02/23 10:14:46;;;;;;;;;6.33;4.67;;;;;24.64;45.83;102440.28;4987753;28;45683;-75
2022/02/23 10:17:12;;;;;;;;;4.00;4.00;;;;;24.67;45.99;102440.03;4990577;28;46390;-75
2022/02/23 10:19:49;;;;;;;;;5.33;5.00;;;;;24.69;45.84;102435.31;5003562;28;45525;-75
2022/02/23 10:22:21;;;;;;;;;10.33;8.00;;;;;24.68;46.02;102433.59;4990133;28;45498;-76
2022/02/23 10:24:46;;;;;;;;;6.33;5.00;;;;;24.61;45.97;102441.44;4999115;28;45594;-74
2022/02/23 10:27:14;;;;;;;;;7.67;5.33;;;;;24.57;45.82;102429.09;4991579;28;45832;-75
2022/02/23 10:29:42;;;;;;;;;6.33;6.33;;;;;24.53;45.96;102437.66;4983899;28;45497;-75
2022/02/23 10:32:10;;;;;;;;;7.67;6.67;;;;;24.53;45.55;102433.13;4986044;28;45635;-78
2022/02/23 10:34:40;;;;;;;;;10.00;6.33;;;;;24.57;44.30;102436.41;4989053;28;45519;-75
2022/02/23 10:37:08;;;;;;;;;17.33;9.00;;;;;24.52;44.22;102441.38;4988596;28;45517;-74
2022/02/23 10:39:38;;;;;;;;;11.00;7.33;;;;;24.49;43.96;102445.22;4987124;28;45518;-74
2022/02/23 10:42:06;;;;;;;;;8.33;7.00;;;;;24.46;43.96;102442.78;4992616;28;45506;-75
2022/02/23 10:44:32;;;;;;;;;10.33;9.00;;;;;24.36;44.15;102431.84;4993627;28;45497;-76
2022/02/23 10:46:59;;;;;;;;;9.00;9.00;;;;;24.32;43.77;102425.84;4983221;28;46228;-76
2022/02/23 10:49:25;;;;;;;;;5.67;5.00;;;;;24.25;43.87;102426.50;4988646;28;45777;-76
2022/02/23 10:51:53;;;;;;;;;7.67;7.67;;;;;24.17;44.01;102429.88;4987482;28;45531;-76
2022/02/23 10:54:20;;;;;;;;;8.67;6.67;;;;;24.09;43.95;102433.25;4989267;28;45723;-74
2022/02/23 10:56:45;;;;;;;;;11.33;8.33;;;;;24.06;44.06;102438.91;4986189;28;47076;-75
2022/02/23 10:59:15;;;;;;;;;9.00;8.00;;;;;24.05;44.22;102427.22;4985151;28;45527;-75
2022/02/23 11:01:45;;;;;;;;;7.67;4.00;;;;;24.10;44.24;102424.13;4993827;28;45633;-75
2022/02/23 11:04:10;;;;;;;;;8.33;5.67;;;;;24.14;44.49;102422.88;4984540;28;45680;-75
2022/02/23 11:06:37;;;;;;;;;10.33;7.00;;;;;24.15;44.51;102421.03;4990693;28;45569;-75
2022/02/23 11:09:04;;;;;;;;;5.67;4.33;;;;;24.17;44.37;102403.63;4988586;28;45405;-75
2022/02/23 11:11:30;;;;;;;;;11.33;8.00;;;;;24.23;44.53;102407.63;4986802;28;45873;-74
2022/02/23 11:13:58;;;;;;;;;10.33;7.33;;;;;24.24;44.52;102406.66;4982417;28;45887;-74
2022/02/23 11:16:25;;;;;;;;;10.33;5.33;;;;;24.22;44.44;102405.91;4990062;28;45481;-74
2022/02/23 11:18:52;;;;;;;;;8.00;6.67;;;;;24.22;44.59;102403.22;4986128;28;45629;-74
2022/02/23 11:21:19;;;;;;;;;6.33;4.33;;;;;24.25;44.85;102404.78;4990152;28;45354;-75
2022/02/23 11:23:49;;;;;;;;;7.00;5.33;;;;;24.31;44.52;102404.25;4988915;28;45437;-75
2022/02/23 11:26:18;;;;;;;;;6.00;5.67;;;;;24.38;44.49;102396.44;4980395;28;46967;-76
2022/02/23 11:29:17;;;;;;;;;5.33;5.33;;;;;24.43;44.14;102391.47;4988056;28;45545;-76
2022/02/23 11:31:48;;;;;;;;;4.33;4.33;;;;;24.46;44.39;102378.50;4979331;28;45358;-77
2022/02/23 11:34:13;;;;;;;;;6.67;5.00;;;;;24.52;44.40;102371.66;4981904;28;45388;-76
2022/02/23 11:36:47;;;;;;;;;5.00;4.33;;;;;24.62;44.15;102377.13;4980515;28;45858;-76
2022/02/23 11:39:21;;;;;;;;;3.00;3.00;;;;;24.77;43.88;102366.75;4984068;28;45353;-76
2022/02/23 11:41:53;;;;;;;;;7.00;4.33;;;;;24.86;43.58;102367.81;4985016;28;45882;-76
2022/02/23 11:44:25;;;;;;;;;4.00;3.67;;;;;24.95;43.50;102356.13;4986802;28;45862;-75
2022/02/23 11:46:50;;;;;;;;;7.00;5.00;;;;;25.02;43.19;102350.13;4989640;28;45623;-76
2022/02/23 11:49:16;;;;;;;;;4.33;3.00;;;;;25.06;43.20;102344.28;4988705;28;45457;-76
2022/02/23 11:51:43;;;;;;;;;3.00;3.00;;;;;25.10;43.33;102339.44;4976000;28;45524;-76
2022/02/23 11:54:09;;;;;;;;;6.00;5.33;;;;;25.13;43.09;102339.13;4985175;28;45496;-76
2022/02/23 11:56:52;;;;;;;;;5.67;4.00;;;;;25.15;43.23;102330.84;4989341;28;46516;-75
2022/02/23 11:59:50;;;;;;;;;12.00;8.33;;;;;25.11;42.91;102327.56;4979017;28;45694;-73
2022/02/23 12:02:15;;;;;;;;;5.00;5.00;;;;;25.08;42.28;102333.25;4979684;28;45510;-73
2022/02/23 12:04:52;;;;;;;;;3.00;3.00;;;;;25.05;42.11;102334.41;4988434;28;45777;-73
2022/02/23 12:07:18;;;;;;;;;6.33;4.33;;;;;25.02;42.20;102328.41;4987937;28;46175;-74
2022/02/23 12:09:57;;;;;;;;;3.33;3.33;;;;;25.03;41.48;102321.97;4971988;28;45401;-73
2022/02/23 12:12:35;;;;;;;;;3.67;3.33;;;;;25.00;41.04;102317.69;4987866;28;45481;-73
2022/02/23 12:15:03;;;;;;;;;3.00;3.00;;;;;24.97;41.00;102315.25;4985041;28;45528;-74
2022/02/23 12:17:52;;;;;;;;;4.00;3.67;;;;;24.92;40.57;102312.94;4992471;28;47030;-74
2022/02/23 12:20:35;;;;;;;;;4.33;2.33;;;;;24.90;40.51;102304.09;4978735;28;45341;-73
2022/02/23 12:23:06;;;;;;;;;3.67;3.00;;;;;24.85;40.42;102295.50;4973384;28;45538;-74
2022/02/23 12:25:46;;;;;;;;;3.00;3.00;;;;;24.84;39.98;102288.34;4982026;28;45491;-73
2022/02/23 12:28:13;;;;;;;;;4.00;4.00;;;;;24.82;39.73;102290.31;4990109;28;45963;-74
2022/02/23 12:30:39;;;;;;;;;2.33;2.33;;;;;24.81;38.94;102281.31;4992354;28;45489;-77
2022/02/23 12:33:14;;;;;;;;;2.33;2.33;;;;;24.81;39.31;102288.59;4989616;28;45435;-74
2022/02/23 12:35:41;;;;;;;;;3.00;1.33;;;;;24.78;39.21;102275.31;4985482;28;45603;-74
2022/02/23 12:38:07;;;;;;;;;2.33;2.33;;;;;24.72;39.05;102279.41;4975649;28;46203;-74
2022/02/23 12:40:34;;;;;;;;;4.00;3.00;;;;;24.69;38.71;102275.13;4986763;28;45561;-75
2022/02/23 12:43:07;;;;;;;;;3.00;3.00;;;;;24.68;37.87;102265.28;4985138;28;45533;-75
2022/02/23 12:45:33;;;;;;;;;3.67;3.00;;;;;24.64;38.10;102268.44;4983655;28;45806;-75
2022/02/23 12:48:01;;;;;;;;;8.33;3.67;;;;;24.56;38.37;102267.25;4984438;28;46219;-77
2022/02/23 12:50:30;;;;;;;;;3.67;1.00;;;;;24.54;38.78;102257.53;4987716;28;45421;-75
2022/02/23 12:52:56;;;;;;;;;3.00;3.00;;;;;24.53;38.95;102259.41;4971363;28;46652;-74
2022/02/23 12:55:22;;;;;;;;;3.00;3.00;;;;;24.53;39.30;102250.38;4991098;28;45548;-75
2022/02/23 12:57:52;;;;;;;;;5.33;4.00;;;;;24.54;39.22;102242.13;4981614;28;46119;-75
2022/02/23 13:00:28;;;;;;;;;3.67;3.67;;;;;24.55;39.58;102246.53;4985192;28;45419;-75
2022/02/23 13:02:54;;;;;;;;;3.33;3.33;;;;;24.53;39.39;102237.69;4988878;28;45589;-74
2022/02/23 13:05:21;;;;;;;;;2.00;2.00;;;;;24.51;39.72;102234.25;4982582;28;46340;-74
2022/02/23 13:07:47;;;;;;;;;2.33;2.33;;;;;24.53;39.75;102229.56;4989717;28;45617;-73
2022/02/23 13:10:12;;;;;;;;;3.00;2.00;;;;;24.53;39.68;102225.97;4983325;28;46209;-73
2022/02/23 13:12:37;;;;;;;;;2.33;2.33;;;;;24.51;39.92;102222.50;4984808;28;45754;-73
2022/02/23 13:15:05;;;;;;;;;3.33;3.33;;;;;24.50;40.12;102216.25;4979758;28;45417;-76
2022/02/23 13:17:32;;;;;;;;;2.00;2.00;;;;;24.47;40.38;102211.09;4985762;28;46767;-76
2022/02/23 13:19:58;;;;;;;;;1.50;1.50;;;;;24.46;40.30;102202.09;4980793;28;45358;-76
2022/02/23 13:22:30;;;;;;;;;3.00;3.00;;;;;24.46;40.30;102196.69;4998382;28;45517;-76
2022/02/23 13:24:57;;;;;;;;;3.00;3.00;;;;;24.45;40.42;102194.09;4991551;28;45570;-76
2022/02/23 13:27:28;;;;;;;;;3.00;3.00;;;;;24.44;40.65;102190.50;4999880;28;46155;-76
2022/02/23 13:29:59;;;;;;;;;1.00;1.00;;;;;24.43;40.88;102196.94;4989796;28;45485;-76
2022/02/23 13:32:30;;;;;;;;;3.33;2.33;;;;;24.40;41.10;102188.22;4984774;28;45592;-76
2022/02/23 13:34:57;;;;;;;;;3.00;1.33;;;;;24.37;40.92;102170.38;4978360;28;45716;-77
2022/02/23 13:37:28;;;;;;;;;2.00;2.00;;;;;24.38;41.10;102165.78;4989186;28;46385;-76
2022/02/23 13:39:57;;;;;;;;;1.33;1.33;;;;;24.38;41.23;102161.22;4983590;28;46195;-74
2022/02/23 13:42:29;;;;;;;;;4.33;2.67;;;;;24.37;41.31;102159.53;4979470;28;45451;-73
2022/02/23 13:44:55;;;;;;;;;2.33;2.00;;;;;24.36;41.41;102154.22;4981360;28;45731;-73
2022/02/23 13:47:23;;;;;;;;;3.33;2.00;;;;;24.34;41.53;102147.09;4982816;28;47216;-73
2022/02/23 13:49:57;;;;;;;;;2.00;2.00;;;;;24.34;41.83;102146.22;4984298;28;45677;-74
2022/02/23 13:52:23;;;;;;;;;3.00;2.33;;;;;24.34;41.64;102138.09;4977404;28;45656;-74
2022/02/23 13:55:00;;;;;;;;;4.00;4.00;;;;;24.33;41.81;102134.50;4985789;28;45517;-75
2022/02/23 13:57:26;;;;;;;;;4.67;2.00;;;;;24.34;41.68;102129.94;4992288;28;45488;-76
2022/02/23 13:59:51;;;;;;;;;1.33;1.00;;;;;24.36;42.21;102129.81;4989204;28;45613;-75
2022/02/23 14:02:17;;;;;;;;;2.33;2.33;;;;;24.38;42.08;102125.09;4990745;28;45926;-75
2022/02/23 14:04:45;;;;;;;;;2.00;2.00;;;;;24.41;42.27;102114.84;4982204;28;45523;-76
2022/02/23 14:07:19;;;;;;;;;2.00;2.00;;;;;24.48;42.19;102128.66;4981432;28;47166;-76
2022/02/23 14:09:45;;;;;;;;;4.67;2.00;;;;;24.50;42.35;102115.81;4994844;28;45589;-76
2022/02/23 14:12:12;;;;;;;;;3.33;2.00;;;;;24.55;42.21;102116.25;4990918;28;47956;-78
2022/02/23 14:14:42;;;;;;;;;4.00;2.00;;;;;24.55;42.33;102118.09;4986274;28;45421;-74
2022/02/23 14:17:22;;;;;;;;;2.00;2.00;;;;;24.56;42.35;102103.56;4976406;28;48046;-76
2022/02/23 14:19:50;;;;;;;;;1.00;1.00;;;;;24.59;42.26;102098.69;4991926;28;45513;-75
2022/02/23 14:22:19;;;;;;;;;1.67;1.00;;;;;24.64;42.46;102100.13;4969734;28;45806;-77
2022/02/23 14:24:58;;;;;;;;;1.00;1.00;;;;;24.70;42.39;102089.53;4990541;28;45761;-79
2022/02/23 14:27:28;;;;;;;;;7.00;4.33;;;;;24.76;41.24;102073.69;4982980;28;45423;-83
2022/02/23 14:29:53;;;;;;;;;3.00;3.00;;;;;24.78;41.32;102071.66;4982161;28;45551;-76
2022/02/23 14:32:30;;;;;;;;;5.00;2.67;;;;;24.68;41.45;102060.84;4986323;28;45466;-76
2022/02/23 14:35:02;;;;;;;;;4.67;4.67;;;;;24.61;41.45;102063.25;4980196;28;45544;-77
2022/02/23 14:37:32;;;;;;;;;3.33;3.33;;;;;24.58;41.73;102064.41;4982524;28;46411;-76
2022/02/23 14:40:00;;;;;;;;;3.00;2.00;;;;;24.58;41.58;102061.69;4979126;28;46795;-75
2022/02/23 14:42:27;;;;;;;;;4.00;2.33;;;;;24.59;41.64;102048.97;4979711;28;45764;-75
2022/02/23 14:44:53;;;;;;;;;3.00;3.00;;;;;24.60;41.85;102045.25;4966546;28;45651;-75
2022/02/23 14:47:19;;;;;;;;;5.67;3.00;;;;;24.60;41.91;102039.81;4983395;28;49227;-76
2022/02/23 14:49:44;;;;;;;;;5.33;3.67;;;;;24.57;41.93;102034.69;4984356;28;45585;-75
2022/02/23 14:52:10;;;;;;;;;4.00;2.00;;;;;24.55;42.03;102031.25;4968134;28;46734;-76
2022/02/23 14:54:35;;;;;;;;;4.33;3.00;;;;;24.57;42.02;102029.25;4988216;28;45516;-76
2022/02/23 14:57:02;;;;;;;;;2.00;1.00;;;;;24.58;42.28;102026.41;4988875;28;46168;-77
2022/02/23 14:59:29;;;;;;;;;4.33;3.00;;;;;24.59;42.08;102019.09;4992344;28;45518;-76
2022/02/23 15:01:55;;;;;;;;;5.00;3.00;;;;;24.60;42.40;102015.38;4983634;28;45426;-75
2022/02/23 15:04:21;;;;;;;;;4.67;2.00;;;;;24.61;42.07;102026.09;4977797;28;45729;-76
2022/02/23 15:06:46;;;;;;;;;5.33;3.00;;;;;24.61;42.32;102020.66;4992375;28;46209;-77
2022/02/23 15:09:11;;;;;;;;;4.67;4.00;;;;;24.60;42.81;102018.09;4992687;28;45728;-76
2022/02/23 15:11:37;;;;;;;;;4.33;1.67;;;;;24.58;42.80;102012.84;4973477;28;48544;-76
2022/02/23 15:14:02;;;;;;;;;5.00;3.00;;;;;24.59;42.56;102022.69;4981544;28;45525;-75
2022/02/23 15:16:28;;;;;;;;;1.33;1.33;;;;;24.60;42.48;102002.69;4991791;28;46356;-75
2022/02/23 15:18:53;;;;;;;;;7.33;4.00;;;;;24.59;42.30;102000.97;4990531;28;45517;-77
2022/02/23 16:26:55;;;;;;;;;3.00;2.25;;;;;19.65;50.08;101933.66;5056713;27;45534;-76
2022/02/23 16:29:20;;;;;;;;;13.75;6.50;;;;;19.72;49.89;101934.94;5075498;27;45507;-76
2022/02/23 16:31:46;;;;;;;;;12.00;10.67;;;;;19.86;50.41;101927.63;5049179;28;45549;-76
2022/02/23 16:34:11;;;;;;;;;12.00;9.67;;;;;20.06;50.41;101925.31;5046125;28;45542;-76
2022/02/23 16:36:37;;;;;;;;;6.75;6.50;;;;;20.30;50.48;101919.88;5049657;28;46041;-75
2022/02/23 16:39:04;;;;;;;;;18.33;9.67;;;;;20.56;49.84;101918.81;5047472;28;45577;-74
2022/02/23 16:41:29;;;;;;;;;11.33;8.00;;;;;20.84;49.84;101922.06;5050423;28;45673;-75
2022/02/23 16:43:55;;;;;;;;;8.00;6.67;;;;;21.06;49.18;101918.53;5054292;28;45591;-75
2022/02/23 16:46:21;;;;;;;;;8.33;6.33;;;;;21.29;49.30;101915.81;5048841;28;45535;-74
2022/02/23 16:48:48;;;;;;;;;11.67;8.00;;;;;21.50;49.38;101905.06;5046848;28;45863;-76
2022/02/23 16:51:13;;;;;;;;;10.00;7.33;;;;;21.72;49.16;101906.03;5050586;28;45475;-75
2022/02/23 16:53:39;;;;;;;;;10.33;6.00;;;;;21.90;48.74;101906.31;5046583;28;45564;-74
2022/02/23 16:56:05;;;;;;;;;13.00;7.00;;;;;22.11;48.70;101910.88;5057498;28;46267;-73
2022/02/23 16:58:31;;;;;;;;;17.00;8.67;;;;;22.30;48.49;101909.31;5051625;28;45557;-76
2022/02/23 17:00:56;;;;;;;;;11.67;6.33;;;;;22.49;47.78;101906.72;5049263;28;45451;-76
2022/02/23 17:03:22;;;;;;;;;7.33;6.33;;;;;22.64;47.73;101903.69;5042645;27;45658;-76
2022/02/23 17:05:49;;;;;;;;;11.33;6.00;;;;;22.80;47.84;101899.66;5055396;28;45298;-76
2022/02/23 17:08:17;;;;;;;;;5.00;4.33;;;;;22.93;47.18;101894.84;5050426;28;45455;-77
2022/02/23 17:10:43;;;;;;;;;5.33;3.67;;;;;23.07;46.91;101892.75;5053399;28;45385;-77
2022/02/23 17:13:09;;;;;;;;;8.00;5.33;;;;;23.14;46.71;101902.06;5045814;28;45525;-76
2022/02/23 17:15:34;;;;;;;;;10.00;6.67;;;;;23.22;46.56;101904.09;5042890;28;46017;-76
2022/02/23 17:18:01;;;;;;;;;5.33;3.33;;;;;23.28;46.79;101896.25;5044741;28;45629;-76
2022/02/23 17:20:27;;;;;;;;;7.67;3.00;;;;;23.39;46.15;101897.16;5045815;28;45573;-77
2022/02/23 17:22:52;;;;;;;;;6.00;4.67;;;;;23.50;46.54;101893.47;5046241;28;45464;-77
2022/02/23 17:25:17;;;;;;;;;10.67;6.00;;;;;23.59;46.17;101894.47;5041703;28;47362;-77
2022/02/23 17:27:43;;;;;;;;;9.00;4.33;;;;;23.65;46.48;101883.94;5041312;28;45504;-77
2022/02/23 17:30:11;;;;;;;;;8.33;6.33;;;;;23.70;45.94;101888.91;5063012;27;45524;-78
2022/02/23 17:32:37;;;;;;;;;6.00;3.33;;;;;23.74;45.83;101887.63;5042820;28;45847;-77
2022/02/23 17:35:05;;;;;;;;;11.00;4.33;;;;;23.79;45.78;101892.66;5043559;28;45461;-76
2022/02/23 17:37:30;;;;;;;;;7.00;4.00;;;;;23.85;45.88;101891.19;5050562;27;45620;-78
2022/02/23 17:39:56;;;;;;;;;14.33;7.00;;;;;23.92;45.28;101895.91;5031196;28;45511;-77
2022/02/23 17:42:22;;;;;;;;;4.00;3.00;;;;;23.96;44.37;101893.78;5031055;28;45856;-76
2022/02/23 17:44:48;;;;;;;;;8.00;5.00;;;;;23.98;44.70;101894.47;5028495;28;45942;-75
2022/02/23 17:47:13;;;;;;;;;4.33;2.67;;;;;23.95;44.86;101892.09;5026660;28;45489;-76
2022/02/23 17:49:38;;;;;;;;;6.00;3.33;;;;;23.93;44.62;101892.22;5026221;28;45811;-76
2022/02/23 17:52:04;;;;;;;;;7.67;4.33;;;;;23.94;44.97;101901.19;5027015;28;45377;-77
2022/02/23 17:54:29;;;;;;;;;8.33;6.00;;;;;23.93;45.12;101896.78;5027533;28;46710;-75
2022/02/23 17:56:55;;;;;;;;;11.33;6.00;;;;;23.91;45.02;101899.63;5030054;28;45388;-72
2022/02/23 17:59:20;;;;;;;;;7.33;5.67;;;;;23.91;45.28;101896.06;5027861;28;45622;-73
2022/02/23 18:01:45;;;;;;;;;4.00;4.00;;;;;23.92;45.36;101897.78;5026346;28;45463;-73
2022/02/23 18:04:11;;;;;;;;;6.00;4.33;;;;;23.94;45.20;101893.94;5032753;28;46349;-72
2022/02/23 18:06:37;;;;;;;;;7.00;4.00;;;;;23.97;45.14;101886.47;5030992;28;45448;-73
2022/02/23 18:09:04;;;;;;;;;7.00;4.00;;;;;23.96;44.99;101893.78;5030219;28;45504;-71
2022/02/23 18:11:29;;;;;;;;;5.33;2.33;;;;;23.97;44.93;101889.19;5033221;28;45502;-71
2022/02/23 18:13:56;;;;;;;;;4.67;4.67;;;;;23.97;45.40;101889.19;5033769;28;45882;-71
2022/02/23 18:16:22;;;;;;;;;8.00;5.67;;;;;23.95;45.43;101892.09;5025740;28;45471;-71
2022/02/23 18:18:47;;;;;;;;;6.33;4.00;;;;;23.93;45.37;101894.94;5031154;28;45439;-71
2022/02/23 18:21:12;;;;;;;;;6.67;4.33;;;;;23.91;45.42;101891.50;5031534;28;46789;-72
2022/02/23 18:23:38;;;;;;;;;6.67;5.00;;;;;23.91;45.45;101886.06;5022385;28;46265;-72
2022/02/23 18:26:05;;;;;;;;;7.67;3.00;;;;;23.91;45.52;101888.78;5053229;28;53381;-72
2022/02/23 18:28:30;;;;;;;;;9.67;6.00;;;;;23.95;45.84;101883.94;5050577;28;45520;-73
2022/02/23 18:30:57;;;;;;;;;4.33;3.67;;;;;23.98;45.71;101882.81;5049001;28;47576;-73
2022/02/23 18:33:23;;;;;;;;;8.00;6.00;;;;;23.99;45.48;101879.91;5045117;28;46454;-73
2022/02/23 18:35:49;;;;;;;;;5.00;3.67;;;;;24.00;45.59;101878.06;5049041;28;45514;-72
2022/02/23 18:38:14;;;;;;;;;5.33;3.67;;;;;24.03;45.49;101875.09;5052669;28;45522;-70
2022/02/23 18:40:40;;;;;;;;;5.33;4.67;;;;;24.04;45.56;101877.63;5048930;28;45444;-71
2022/02/23 18:43:05;;;;;;;;;4.67;3.00;;;;;24.04;45.73;101872.19;5047049;28;46395;-71
2022/02/23 18:45:31;;;;;;;;;9.00;4.00;;;;;24.02;45.47;101871.50;5050068;28;45496;-73
2022/02/23 18:47:56;;;;;;;;;4.33;4.33;;;;;24.04;45.78;101860.53;5049809;28;45999;-73
2022/02/23 18:50:21;;;;;;;;;5.67;4.33;;;;;24.06;45.83;101862.09;5048050;28;45540;-72
2022/02/23 18:52:48;;;;;;;;;6.33;5.00;;;;;24.07;45.65;101858.38;5049134;28;45984;-72
2022/02/23 18:55:14;;;;;;;;;8.00;5.67;;;;;24.08;45.65;101861.94;5047494;28;47108;-72
2022/02/23 18:57:39;;;;;;;;;5.67;5.00;;;;;24.08;45.48;101851.94;5048311;28;45498;-72
2022/02/23 19:00:05;;;;;;;;;5.50;4.00;;;;;24.09;45.49;101852.84;5048147;28;45402;-72
2022/02/23 19:02:30;;;;;;;;;7.33;5.67;;;;;24.09;45.26;101860.97;5046614;28;45715;-72
2022/02/23 19:04:56;;;;;;;;;5.67;3.00;;;;;24.10;45.19;101853.69;5043459;28;45516;-72
2022/02/23 19:07:21;;;;;;;;;8.00;5.00;;;;;24.09;45.28;101844.69;5046357;28;45472;-72
2022/02/23 19:09:47;;;;;;;;;6.33;4.67;;;;;24.08;44.98;101846.50;5046338;28;45513;-72
2022/02/23 19:12:12;;;;;;;;;5.67;5.67;;;;;24.09;45.16;101852.84;5047750;28;51265;-73
2022/02/23 19:14:37;;;;;;;;;4.00;4.00;;;;;24.10;45.33;101849.13;5049888;28;45404;-74
2022/02/23 19:17:04;;;;;;;;;8.67;4.00;;;;;24.11;45.10;101844.56;5050875;28;45329;-74
2022/02/23 19:19:29;;;;;;;;;7.33;6.33;;;;;24.12;45.05;101846.25;5039124;28;45499;-73
2022/02/23 19:21:56;;;;;;;;;6.00;5.67;;;;;24.11;45.11;101845.41;5048422;28;45727;-73
2022/02/23 19:24:22;;;;;;;;;7.00;4.33;;;;;24.14;45.02;101841.53;5049301;28;45372;-73
2022/02/23 19:26:48;;;;;;;;;5.33;5.00;;;;;24.14;45.01;101838.81;5037454;28;45690;-72
2022/02/23 19:29:14;;;;;;;;;6.00;4.67;;;;;24.16;45.10;101837.66;5049849;28;45662;-72
2022/02/23 19:31:43;;;;;;;;;4.00;3.33;;;;;24.19;45.10;101840.09;5053934;28;46185;-73
2022/02/23 19:34:09;;;;;;;;;7.00;3.67;;;;;24.20;44.88;101836.38;5038597;28;45860;-73
2022/02/23 19:36:34;;;;;;;;;3.67;3.67;;;;;24.19;45.26;101834.69;5042467;28;45507;-73
2022/02/23 19:39:00;;;;;;;;;4.67;4.33;;;;;24.23;45.16;101832.50;5044985;28;45421;-72
2022/02/23 19:41:25;;;;;;;;;5.33;4.67;;;;;24.28;44.86;101829.38;5046677;28;46800;-72
2022/02/23 19:43:50;;;;;;;;;4.33;4.33;;;;;24.34;45.04;101831.50;5050466;28;45396;-73
2022/02/23 19:46:16;;;;;;;;;4.67;4.00;;;;;24.36;44.85;101829.47;5049120;28;45675;-74
2022/02/23 19:48:41;;;;;;;;;5.00;4.00;;;;;24.35;44.69;101838.63;5048363;28;45840;-74
2022/02/23 19:51:07;;;;;;;;;6.33;6.33;;;;;24.30;44.72;101828.22;5045660;28;46105;-74
2022/02/23 19:53:32;;;;;;;;;5.00;3.33;;;;;24.29;44.76;101831.94;5044860;28;45503;-73
2022/02/23 19:55:59;;;;;;;;;7.33;4.33;;;;;24.28;44.95;101829.38;5049876;28;45415;-74
2022/02/23 19:58:26;;;;;;;;;6.67;4.67;;;;;24.32;44.44;101828.94;5048694;28;45483;-74
2022/02/23 20:00:53;;;;;;;;;5.67;4.67;;;;;24.37;44.70;101825.78;5043059;28;46466;-75
2022/02/23 20:03:18;;;;;;;;;7.00;4.00;;;;;24.34;44.55;101821.50;5047873;28;47897;-73